Time;durP1;ratioP1;P1;durP2;ratioP2;P2;SDS_P1;SDS_P2;PMS_P1;PMS_P2;Temp;Humidity;BMP_temperature;BMP_pressure;BME280_temperature;BME280_humidity;BME280_pressure;Samples;Min_cycle;Max_cycle;Signal;HPM_P1;HPM_P2
2022/03/28 00:00:31;;;;;;;;;;;;;;;17.97;37.96;102123.78;4998862;28;1040;-64
2022/03/28 00:02:58;;;;;;;;;;;;;;;18.03;37.57;102122.75;4998846;28;897;-63
2022/03/28 00:05:23;;;;;;;;;;;;;;;17.98;37.83;102122.69;4998347;28;983;-64
2022/03/28 00:07:49;;;;;;;;;;;;;;;17.94;37.73;102127.03;4998867;28;1979;-64
2022/03/28 00:10:14;;;;;;;;;;;;;;;17.86;37.75;102119.97;5002284;28;831;-63
2022/03/28 00:12:40;;;;;;;;;;;;;;;18.00;37.52;102120.50;5017127;28;834;-63
2022/03/28 00:15:06;;;;;;;;;;;;;;;18.39;37.04;102125.25;5017227;28;916;-63
2022/03/28 00:17:32;;;;;;;;;;;;;;;18.75;36.42;102120.22;5017226;28;878;-63
2022/03/28 00:20:01;;;;;;;;;;;;;;;19.02;35.65;102125.00;5017277;28;770;-63
2022/03/28 00:22:26;;;;;;;;;;;;;;;19.15;35.63;102122.69;5015280;28;834;-64
2022/03/28 00:24:52;;;;;;;;;;;;;;;18.99;35.60;102120.84;5002173;28;881;-64
2022/03/28 00:27:18;;;;;;;;;;;;;;;18.45;36.67;102124.22;4998209;28;1910;-64
2022/03/28 00:29:43;;;;;;;;;;;;;;;18.50;36.63;102126.22;4998689;28;733;-63
2022/03/28 00:32:09;;;;;;;;;;;;;;;17.88;37.75;102131.59;4998322;28;1084;-64
2022/03/28 00:34:35;;;;;;;;;;;;;;;18.51;36.75;102136.13;4997918;28;904;-63
2022/03/28 00:37:00;;;;;;;;;;;;;;;18.73;36.08;102136.16;5012247;28;901;-63
2022/03/28 00:39:25;;;;;;;;;;;;;;;18.95;35.82;102127.94;5016194;28;1318;-63
2022/03/28 00:41:51;;;;;;;;;;;;;;;19.09;35.46;102133.91;5016769;28;822;-63
2022/03/28 00:44:16;;;;;;;;;;;;;;;18.59;36.33;102130.19;5017054;28;858;-63
2022/03/28 00:46:42;;;;;;;;;;;;;;;17.91;37.63;102124.78;5016382;28;1914;-63
2022/03/28 00:49:08;;;;;;;;;;;;;;;18.10;37.27;102136.34;5012182;28;822;-63
2022/03/28 00:51:33;;;;;;;;;;;;;;;18.08;37.32;102133.84;5016847;28;782;-64
2022/03/28 00:53:59;;;;;;;;;;;;;;;18.05;37.29;102136.28;5012013;28;760;-64
2022/03/28 00:56:24;;;;;;;;;;;;;;;17.92;37.59;102142.94;4997677;28;750;-63
2022/03/28 00:58:49;;;;;;;;;;;;;;;17.95;37.54;102139.72;4997804;28;946;-63
2022/03/28 01:01:15;;;;;;;;;;;;;;;18.54;36.45;102146.69;5003095;28;826;-63
2022/03/28 01:03:40;;;;;;;;;;;;;;;18.71;36.30;102136.44;5013863;28;1006;-63
2022/03/28 01:06:06;;;;;;;;;;;;;;;18.92;35.73;102142.25;5009013;28;774;-64
2022/03/28 01:08:31;;;;;;;;;;;;;;;19.10;35.38;102147.44;5015169;28;1995;-64
2022/03/28 01:10:57;;;;;;;;;;;;;;;19.19;35.09;102146.97;4997292;28;846;-64
2022/03/28 01:13:23;;;;;;;;;;;;;;;18.75;35.67;102145.84;4980083;28;857;-64
2022/03/28 01:15:48;;;;;;;;;;;;;;;17.74;37.96;102142.06;5013993;28;775;-63
2022/03/28 01:18:14;;;;;;;;;;;;;;;17.80;37.66;102151.25;5016324;28;767;-63
2022/03/28 01:20:40;;;;;;;;;;;;;;;17.81;37.47;102141.91;5016494;28;896;-64
2022/03/28 01:23:05;;;;;;;;;;;;;;;17.77;37.82;102146.25;5015295;28;920;-63
2022/03/28 01:25:31;;;;;;;;;;;;;;;17.74;38.14;102150.31;5002064;28;1055;-64
2022/03/28 01:27:58;;;;;;;;;;;;;;;17.93;37.75;102144.63;5015509;28;1984;-63
2022/03/28 01:30:24;;;;;;;;;;;;;;;18.55;36.49;102145.56;5016060;28;742;-63
2022/03/28 01:32:50;;;;;;;;;;;;;;;18.87;35.68;102136.63;5016095;28;861;-63
2022/03/28 01:35:25;;;;;;;;;;;;;;;19.13;35.20;102154.34;5016440;28;1109;-63
2022/03/28 01:37:51;;;;;;;;;;;;;;;19.36;34.76;102150.47;5015656;28;1360;-64
2022/03/28 01:40:16;;;;;;;;;;;;;;;18.95;35.49;102142.56;5001052;28;1116;-63
2022/03/28 01:42:41;;;;;;;;;;;;;;;18.07;37.28;102134.13;4997032;28;825;-63
2022/03/28 01:45:08;;;;;;;;;;;;;;;17.53;38.19;102131.78;4997047;28;1050;-63
2022/03/28 01:47:33;;;;;;;;;;;;;;;17.85;37.71;102131.22;4997133;28;1985;-65
2022/03/28 01:49:59;;;;;;;;;;;;;;;18.12;37.04;102140.53;4997190;28;776;-64
2022/03/28 01:52:24;;;;;;;;;;;;;;;18.38;36.48;102129.91;4996673;28;848;-64
2022/03/28 01:54:50;;;;;;;;;;;;;;;18.89;35.50;102137.25;4996656;28;756;-64
2022/03/28 01:57:15;;;;;;;;;;;;;;;19.05;35.20;102139.09;4979423;28;1324;-65
2022/03/28 01:59:41;;;;;;;;;;;;;;;19.30;34.67;102141.31;5010160;28;751;-65
2022/03/28 02:02:06;;;;;;;;;;;;;;;19.26;34.76;102137.41;5016025;28;959;-66
2022/03/28 02:04:32;;;;;;;;;;;;;;;17.98;37.07;102133.69;5006364;28;1085;-65
2022/03/28 02:06:58;;;;;;;;;;;;;;;17.77;37.40;102125.06;5015455;28;1963;-66
2022/03/28 02:09:23;;;;;;;;;;;;;;;17.84;37.19;102121.31;4997377;28;847;-66
2022/03/28 02:11:48;;;;;;;;;;;;;;;17.71;37.68;102134.31;4996870;28;812;-66
2022/03/28 02:14:14;;;;;;;;;;;;;;;17.82;37.46;102126.22;4996957;28;867;-68
2022/03/28 02:16:39;;;;;;;;;;;;;;;18.42;36.35;102125.56;4996833;28;782;-68
2022/03/28 02:19:05;;;;;;;;;;;;;;;18.60;35.99;102127.19;5007248;28;861;-68
2022/03/28 02:21:30;;;;;;;;;;;;;;;18.96;35.19;102124.09;5005242;28;823;-66
2022/03/28 02:23:56;;;;;;;;;;;;;;;19.05;35.05;102133.56;5000952;28;888;-67
2022/03/28 02:26:21;;;;;;;;;;;;;;;19.08;34.96;102149.63;5015520;28;803;-68
2022/03/28 02:28:47;;;;;;;;;;;;;;;18.80;35.29;102137.66;5015362;28;1906;-64
2022/03/28 02:31:13;;;;;;;;;;;;;;;18.30;36.14;102131.19;5012623;28;742;-63
2022/03/28 02:33:38;;;;;;;;;;;;;;;18.15;36.02;102138.38;5016671;28;842;-63
2022/03/28 02:36:04;;;;;;;;;;;;;;;17.92;36.07;102132.78;5019735;28;848;-63
2022/03/28 02:38:29;;;;;;;;;;;;;;;17.78;36.10;102126.75;5018150;28;993;-63
2022/03/28 02:40:55;;;;;;;;;;;;;;;17.56;36.40;102131.31;4999819;28;989;-63
2022/03/28 02:43:22;;;;;;;;;;;;;;;17.57;37.80;102136.56;5001631;28;823;-63
2022/03/28 02:45:48;;;;;;;;;;;;;;;18.01;37.13;102135.13;5019020;28;857;-62
2022/03/28 02:48:13;;;;;;;;;;;;;;;18.55;36.17;102146.41;5018955;28;1973;-63
2022/03/28 02:50:39;;;;;;;;;;;;;;;18.72;35.66;102146.38;5019097;28;938;-63
2022/03/28 02:53:04;;;;;;;;;;;;;;;18.92;35.33;102150.53;5019095;28;777;-63
2022/03/28 02:55:30;;;;;;;;;;;;;;;19.13;35.09;102152.41;5002026;28;1028;-63
2022/03/28 02:57:55;;;;;;;;;;;;;;;19.10;34.77;102152.94;5000041;28;918;-65
2022/03/28 03:00:21;;;;;;;;;;;;;;;18.85;35.36;102149.84;4999907;28;1448;-63
2022/03/28 03:02:46;;;;;;;;;;;;;;;18.40;35.94;102155.28;4999965;28;826;-63
2022/03/28 03:05:12;;;;;;;;;;;;;;;18.23;36.12;102151.69;4999813;28;778;-63
2022/03/28 03:07:37;;;;;;;;;;;;;;;18.03;36.39;102147.53;4999728;28;1952;-63
2022/03/28 03:10:03;;;;;;;;;;;;;;;17.77;36.73;102157.25;4999127;28;1071;-62
2022/03/28 03:12:29;;;;;;;;;;;;;;;17.79;36.42;102153.19;4999684;28;831;-62
2022/03/28 03:14:54;;;;;;;;;;;;;;;17.52;36.98;102154.88;4999830;28;713;-62
2022/03/28 03:17:20;;;;;;;;;;;;;;;18.00;37.07;102150.78;5010819;28;761;-62
2022/03/28 03:19:45;;;;;;;;;;;;;;;18.49;36.14;102160.38;5018804;28;777;-61
2022/03/28 03:22:14;;;;;;;;;;;;;;;18.29;36.39;102153.47;4998248;28;976;-61
2022/03/28 03:24:42;;;;;;;;;;;;;;;18.10;36.44;102158.38;5008067;28;992;-62
2022/03/28 03:27:08;;;;;;;;;;;;;;;17.90;36.75;102161.59;4999170;28;1982;-62
2022/03/28 03:29:34;;;;;;;;;;;;;;;17.60;36.37;102169.06;4999721;28;806;-62
2022/03/28 03:31:59;;;;;;;;;;;;;;;17.66;37.20;102171.91;4998126;28;1122;-64
2022/03/28 03:34:25;;;;;;;;;;;;;;;17.60;38.02;102165.47;5012128;28;750;-65
2022/03/28 03:36:50;;;;;;;;;;;;;;;17.81;37.46;102168.59;5018309;28;762;-66
2022/03/28 03:39:15;;;;;;;;;;;;;;;17.83;37.25;102171.94;5013473;28;1052;-64
2022/03/28 03:41:41;;;;;;;;;;;;;;;17.90;37.13;102183.63;5018016;28;778;-63
2022/03/28 03:44:06;;;;;;;;;;;;;;;17.82;37.32;102182.09;5018081;28;798;-65
2022/03/28 03:46:32;;;;;;;;;;;;;;;17.75;37.49;102176.75;5015095;28;1969;-62
2022/03/28 03:48:58;;;;;;;;;;;;;;;17.56;37.80;102181.63;5018176;28;773;-64
2022/03/28 03:51:23;;;;;;;;;;;;;;;17.65;37.04;102176.56;5017935;28;783;-64
2022/03/28 03:53:49;;;;;;;;;;;;;;;17.55;37.63;102192.88;5014386;28;774;-64
2022/03/28 03:56:14;;;;;;;;;;;;;;;18.00;36.81;102189.31;4980865;28;894;-65
2022/03/28 03:58:40;;;;;;;;;;;;;;;18.32;36.21;102202.50;4982111;28;915;-66
2022/03/28 04:01:05;;;;;;;;;;;;;;;18.09;36.11;102192.50;5011412;28;827;-63
2022/03/28 04:03:33;;;;;;;;;;;;;;;18.00;36.32;102183.81;5016133;28;1061;-65
2022/03/28 04:05:58;;;;;;;;;;;;;;;17.74;36.62;102185.25;4998882;28;763;-69
2022/03/28 04:08:24;;;;;;;;;;;;;;;17.45;36.58;102191.59;4998031;28;1987;-68
2022/03/28 04:10:49;;;;;;;;;;;;;;;17.49;37.30;102182.84;5017069;28;907;-69
2022/03/28 04:13:15;;;;;;;;;;;;;;;17.71;37.24;102203.09;5015453;28;827;-69
2022/03/28 04:15:40;;;;;;;;;;;;;;;17.93;36.75;102208.72;5017049;28;774;-67
2022/03/28 04:18:06;;;;;;;;;;;;;;;18.00;36.32;102188.50;4999076;28;952;-66
2022/03/28 04:20:32;;;;;;;;;;;;;;;18.09;36.50;102198.00;5017007;28;1139;-65
2022/03/28 04:22:57;;;;;;;;;;;;;;;17.93;36.47;102191.41;5016718;28;867;-65
2022/03/28 04:25:23;;;;;;;;;;;;;;;17.77;36.91;102190.28;5004144;28;899;-65
2022/03/28 04:27:48;;;;;;;;;;;;;;;17.67;36.68;102185.41;5016429;28;1971;-62
2022/03/28 04:30:14;;;;;;;;;;;;;;;17.45;36.39;102186.09;5010975;28;916;-63
2022/03/28 04:32:39;;;;;;;;;;;;;;;17.51;36.79;102187.03;5017122;28;867;-63
2022/03/28 04:35:05;;;;;;;;;;;;;;;17.42;37.33;102189.34;5013817;28;758;-65
2022/03/28 04:37:34;;;;;;;;;;;;;;;17.60;37.44;102184.72;5000783;28;1129;-65
2022/03/28 04:39:59;;;;;;;;;;;;;;;17.91;36.64;102185.31;4988987;28;983;-67
2022/03/28 04:42:25;;;;;;;;;;;;;;;18.29;35.83;102181.81;4998289;28;1304;-68
2022/03/28 04:44:50;;;;;;;;;;;;;;;18.61;35.12;102183.13;4997947;28;742;-67
2022/03/28 04:47:16;;;;;;;;;;;;;;;18.55;35.41;102184.13;4997422;28;1967;-66
2022/03/28 04:49:41;;;;;;;;;;;;;;;18.29;35.71;102189.25;4997073;28;810;-66
2022/03/28 04:52:07;;;;;;;;;;;;;;;18.12;36.19;102192.84;5010965;28;898;-67
2022/03/28 04:54:32;;;;;;;;;;;;;;;17.92;36.16;102190.56;5012672;28;896;-63
2022/03/28 04:56:58;;;;;;;;;;;;;;;17.57;35.73;102193.47;5015993;28;790;-62
2022/03/28 04:59:23;;;;;;;;;;;;;;;17.45;37.13;102199.84;5016273;28;913;-60
2022/03/28 05:01:48;;;;;;;;;;;;;;;17.58;37.22;102197.88;5016537;28;1470;-64
2022/03/28 05:04:14;;;;;;;;;;;;;;;17.67;37.22;102207.41;5009047;28;999;-62
2022/03/28 05:06:39;;;;;;;;;;;;;;;17.54;37.19;102192.03;4996939;28;1902;-65
2022/03/28 05:09:05;;;;;;;;;;;;;;;17.50;36.74;102195.53;4997291;28;1094;-66
2022/03/28 05:11:30;;;;;;;;;;;;;;;17.35;36.60;102201.53;4997715;28;809;-63
2022/03/28 05:13:56;;;;;;;;;;;;;;;17.68;36.92;102200.81;4997482;28;937;-65
2022/03/28 05:16:22;;;;;;;;;;;;;;;18.23;35.77;102210.38;4997189;28;889;-65
2022/03/28 05:18:47;;;;;;;;;;;;;;;18.34;35.43;102211.38;4997493;28;852;-66
2022/03/28 05:21:12;;;;;;;;;;;;;;;18.09;35.89;102204.34;4997781;28;719;-62
2022/03/28 05:23:38;;;;;;;;;;;;;;;17.95;36.36;102214.84;4997264;28;782;-67
2022/03/28 05:26:03;;;;;;;;;;;;;;;17.81;36.71;102209.84;4997353;28;726;-66
2022/03/28 05:28:29;;;;;;;;;;;;;;;17.53;36.43;102217.03;4997145;28;1984;-65
2022/03/28 05:30:57;;;;;;;;;;;;;;;17.49;36.64;102211.19;4996698;28;951;-65
2022/03/28 05:33:22;;;;;;;;;;;;;;;17.48;37.29;102208.69;4997127;28;898;-62
2022/03/28 05:35:48;;;;;;;;;;;;;;;17.62;37.13;102210.06;4997473;28;854;-63
2022/03/28 05:38:13;;;;;;;;;;;;;;;17.85;36.46;102217.38;4996820;28;1069;-60
2022/03/28 05:40:38;;;;;;;;;;;;;;;17.93;36.31;102217.00;4997202;28;992;-60
2022/03/28 05:43:04;;;;;;;;;;;;;;;17.77;36.78;102217.78;4997169;28;1002;-65
2022/03/28 05:45:29;;;;;;;;;;;;;;;17.86;36.43;102201.69;4996958;28;778;-67
2022/03/28 05:47:55;;;;;;;;;;;;;;;17.62;37.05;102199.88;4996994;28;1915;-65
2022/03/28 05:50:22;;;;;;;;;;;;;;;17.57;36.97;102201.72;4997462;28;866;-68
2022/03/28 05:52:47;;;;;;;;;;;;;;;17.19;37.31;102201.22;4998012;28;1096;-62
2022/03/28 05:55:13;;;;;;;;;;;;;;;17.62;37.23;102210.06;5009887;28;858;-68
2022/03/28 05:57:38;;;;;;;;;;;;;;;17.70;36.75;102189.59;5016111;28;798;-63
2022/03/28 06:00:05;;;;;;;;;;;;;;;17.68;36.82;102202.75;5015897;28;743;-63
2022/03/28 06:02:37;;;;;;;;;;;;;;;17.33;36.60;102196.28;4991672;28;705;-62
2022/03/28 06:05:03;;;;;;;;;;;;;;;17.32;37.68;102197.41;4996908;28;978;-60
2022/03/28 06:07:28;;;;;;;;;;;;;;;17.83;36.88;102200.28;5002356;28;1907;-61
2022/03/28 06:09:54;;;;;;;;;;;;;;;17.67;37.00;102190.91;5002124;28;1062;-62
2022/03/28 06:12:19;;;;;;;;;;;;;;;17.66;36.93;102194.75;5000644;28;1204;-61
2022/03/28 06:14:45;;;;;;;;;;;;;;;17.37;37.11;102204.91;5000360;28;850;-69
2022/03/28 06:17:11;;;;;;;;;;;;;;;17.94;36.69;102199.41;5000510;28;818;-61
2022/03/28 06:19:37;;;;;;;;;;;;;;;17.94;36.31;102198.59;4988280;28;1248;-60
2022/03/28 06:22:02;;;;;;;;;;;;;;;17.72;37.04;102201.16;5019028;28;769;-64
2022/03/28 06:24:28;;;;;;;;;;;;;;;17.48;36.72;102198.53;5010639;28;873;-61
2022/03/28 06:26:53;;;;;;;;;;;;;;;17.30;37.66;102202.28;5000484;28;1988;-65
2022/03/28 06:29:19;;;;;;;;;;;;;;;17.94;36.58;102202.16;5004277;28;834;-61
2022/03/28 06:31:46;;;;;;;;;;;;;;;17.85;36.56;102202.78;5017819;28;1064;-65
2022/03/28 06:34:11;;;;;;;;;;;;;;;17.77;36.88;102207.59;5016351;28;845;-64
2022/03/28 06:36:37;;;;;;;;;;;;;;;17.48;36.91;102206.78;5018823;28;813;-62
2022/03/28 06:39:03;;;;;;;;;;;;;;;17.51;37.44;102213.69;5013489;28;1204;-62
2022/03/28 06:41:28;;;;;;;;;;;;;;;17.64;37.07;102204.31;5002693;28;947;-60
2022/03/28 06:43:53;;;;;;;;;;;;;;;17.77;36.66;102213.09;5001827;28;1268;-62
2022/03/28 06:46:20;;;;;;;;;;;;;;;17.82;36.58;102206.03;5000157;28;1096;-63
2022/03/28 06:48:45;;;;;;;;;;;;;;;17.73;36.67;102209.19;5007501;28;1981;-64
2022/03/28 06:51:11;;;;;;;;;;;;;;;17.50;36.30;102214.78;4999085;28;1228;-63
2022/03/28 06:53:36;;;;;;;;;;;;;;;17.60;37.23;102206.75;4998444;28;1295;-62
2022/03/28 06:56:02;;;;;;;;;;;;;;;18.04;36.42;102211.69;4999588;28;778;-63
2022/03/28 06:58:28;;;;;;;;;;;;;;;17.82;36.34;102209.59;5006057;28;819;-63
2022/03/28 07:00:53;;;;;;;;;;;;;;;17.49;36.92;102208.44;5018780;28;766;-66
2022/03/28 07:03:19;;;;;;;;;;;;;;;17.44;37.15;102211.91;5018481;28;848;-64
2022/03/28 07:05:45;;;;;;;;;;;;;;;17.35;38.02;102218.91;4999507;28;1232;-67
2022/03/28 07:08:12;;;;;;;;;;;;;;;18.07;36.58;102217.50;4999877;28;1906;-66
2022/03/28 07:10:37;;;;;;;;;;;;;;;18.41;35.69;102206.53;5001993;28;1077;-65
2022/03/28 07:13:03;;;;;;;;;;;;;;;18.37;35.82;102202.59;5001148;28;1365;-70
2022/03/28 07:15:28;;;;;;;;;;;;;;;18.38;35.62;102209.75;4999563;28;1119;-67
2022/03/28 07:17:56;;;;;;;;;;;;;;;18.21;36.00;102219.94;4999207;28;826;-69
2022/03/28 07:20:22;;;;;;;;;;;;;;;18.15;36.20;102220.97;4980401;28;1129;-67
2022/03/28 07:22:47;;;;;;;;;;;;;;;17.98;36.38;102227.28;4998800;28;1322;-65
2022/03/28 07:25:13;;;;;;;;;;;;;;;17.79;36.66;102223.84;4999089;28;812;-66
2022/03/28 07:27:39;;;;;;;;;;;;;;;17.81;36.66;102226.38;5007435;28;1906;-67
2022/03/28 07:30:05;;;;;;;;;;;;;;;17.87;36.74;102228.97;5015668;28;850;-65
2022/03/28 07:32:30;;;;;;;;;;;;;;;18.37;35.98;102227.41;5018092;28;822;-65
2022/03/28 07:34:55;;;;;;;;;;;;;;;18.75;34.92;102228.53;5018014;28;883;-66
2022/03/28 07:37:22;;;;;;;;;;;;;;;18.98;34.60;102226.66;5001021;28;1126;-69
2022/03/28 07:39:48;;;;;;;;;;;;;;;19.19;34.15;102221.44;4998844;28;834;-67
2022/03/28 07:42:13;;;;;;;;;;;;;;;19.10;34.28;102221.88;4999240;28;794;-66
2022/03/28 07:44:39;;;;;;;;;;;;;;;19.01;34.59;102217.88;4998752;28;909;-67
2022/03/28 07:47:08;;;;;;;;;;;;;;;18.62;35.25;102218.69;4998980;28;1902;-65
2022/03/28 07:49:35;;;;;;;;;;;;;;;18.22;36.13;102216.13;5007242;28;779;-68
2022/03/28 07:52:01;;;;;;;;;;;;;;;17.93;36.42;102211.50;5002793;28;1086;-66
2022/03/28 07:54:26;;;;;;;;;;;;;;;17.82;36.59;102223.34;4998812;28;900;-65
2022/03/28 07:56:52;;;;;;;;;;;;;;;17.58;36.91;102219.88;4998475;28;870;-65
2022/03/28 07:59:17;;;;;;;;;;;;;;;17.72;36.86;102214.94;4998399;28;869;-64
2022/03/28 08:01:43;;;;;;;;;;;;;;;17.75;37.09;102223.53;5005369;28;858;-67
2022/03/28 08:04:08;;;;;;;;;;;;;;;17.99;36.77;102223.41;5011046;28;959;-64
2022/03/28 08:06:34;;;;;;;;;;;;;;;18.39;35.67;102214.19;4998037;28;1165;-65
2022/03/28 08:08:59;;;;;;;;;;;;;;;18.73;34.99;102216.94;4998256;28;1969;-67
2022/03/28 08:11:25;;;;;;;;;;;;;;;18.79;34.78;102204.88;4998186;28;819;-65
2022/03/28 08:13:50;;;;;;;;;;;;;;;19.08;34.51;102206.66;4997913;28;802;-65
2022/03/28 08:16:16;;;;;;;;;;;;;;;19.04;34.40;102206.38;5016198;28;843;-63
2022/03/28 08:18:41;;;;;;;;;;;;;;;19.26;34.22;102206.34;5004033;28;862;-59
2022/03/28 08:21:08;;;;;;;;;;;;;;;19.21;34.21;102199.94;5017191;28;759;-60
2022/03/28 08:23:34;;;;;;;;;;;;;;;18.08;35.90;102208.19;5015621;28;837;-61
2022/03/28 08:26:00;;;;;;;;;;;;;;;17.73;37.10;102200.91;5008575;28;1228;-61
2022/03/28 08:28:26;;;;;;;;;;;;;;;17.85;36.49;102197.28;5015696;28;1902;-59
2022/03/28 08:30:51;;;;;;;;;;;;;;;17.84;36.58;102192.84;5016949;28;1085;-62
2022/03/28 08:33:17;;;;;;;;;;;;;;;17.87;36.56;102189.63;5015528;28;1149;-59
2022/03/28 08:35:42;;;;;;;;;;;;;;;18.05;36.41;102194.91;5003718;28;1467;-62
2022/03/28 08:38:08;;;;;;;;;;;;;;;18.08;36.16;102174.31;4996646;28;1118;-62
2022/03/28 08:40:33;;;;;;;;;;;;;;;18.50;35.31;102184.06;5004159;28;980;-62
2022/03/28 08:42:59;;;;;;;;;;;;;;;18.85;34.77;102171.91;5015114;28;746;-62
2022/03/28 08:45:24;;;;;;;;;;;;;;;19.12;34.24;102172.81;5017008;28;895;-62
2022/03/28 08:47:50;;;;;;;;;;;;;;;19.39;33.85;102182.22;5016430;28;1898;-62
2022/03/28 08:50:16;;;;;;;;;;;;;;;18.66;34.87;102163.91;5016308;28;865;-62
2022/03/28 08:52:41;;;;;;;;;;;;;;;17.85;36.57;102153.25;5008422;28;826;-63
2022/03/28 08:55:10;;;;;;;;;;;;;;;17.90;36.40;102158.84;5009925;28;1036;-61
2022/03/28 08:57:35;;;;;;;;;;;;;;;17.85;36.47;102154.09;4991553;28;831;-60
2022/03/28 09:00:02;;;;;;;;;;;;;;;17.80;36.71;102148.50;4997407;28;874;-61
2022/03/28 09:02:49;;;;;;;;;;;;;;;17.62;36.87;102144.06;5016778;28;1156;-57
2022/03/28 09:05:15;;;;;;;;;;;;;;;17.60;36.67;102143.47;5003313;28;1026;-58
2022/03/28 09:07:41;;;;;;;;;;;;;;;17.56;37.15;102148.63;4998696;28;1977;-58
2022/03/28 09:10:07;;;;;;;;;;;;;;;17.50;37.35;102148.78;5002609;28;878;-58
2022/03/28 09:12:39;;;;;;;;;;;;;;;18.49;35.51;102141.09;4997429;28;822;-58
2022/03/28 09:15:08;;;;;;;;;;;;;;;18.87;34.72;102143.00;4997466;28;794;-60
2022/03/28 09:17:33;;;;;;;;;;;;;;;18.69;35.26;102138.63;4999006;28;868;-60
2022/03/28 09:20:02;;;;;;;;;;;;;;;18.29;35.74;102136.94;5015764;28;807;-58
2022/03/28 09:22:27;;;;;;;;;;;;;;;18.10;36.10;102130.84;5016509;28;783;-60
2022/03/28 09:24:54;;;;;;;;;;;;;;;17.99;36.37;102121.59;5004147;28;881;-58
2022/03/28 09:27:21;;;;;;;;;;;;;;;17.92;36.30;102120.94;4996503;28;1910;-58
2022/03/28 09:29:56;;;;;;;;;;;;;;;17.83;36.52;102114.16;4997127;28;1023;-58
2022/03/28 09:32:31;;;;;;;;;;;;;;;17.85;36.61;102109.22;4992940;28;886;-59
2022/03/28 09:35:00;;;;;;;;;;;;;;;17.76;36.85;102117.88;4996756;28;807;-58
2022/03/28 09:37:26;;;;;;;;;;;;;;;17.76;36.89;102120.63;4997360;28;1073;-57
2022/03/28 09:39:51;;;;;;;;;;;;;;;17.93;36.42;102114.34;5006312;28;917;-57
2022/03/28 09:42:17;;;;;;;;;;;;;;;18.35;35.76;102104.81;4998170;28;911;-56
2022/03/28 09:44:53;;;;;;;;;;;;;;;18.71;34.83;102100.63;5014009;28;850;-58
2022/03/28 09:47:27;;;;;;;;;;;;;;;19.02;34.22;102108.47;5016146;28;1906;-57
2022/03/28 09:49:54;;;;;;;;;;;;;;;19.25;33.79;102093.53;5015943;28;778;-57
2022/03/28 09:52:25;;;;;;;;;;;;;;;19.31;33.88;102092.53;5015731;28;894;-58
2022/03/28 09:54:51;;;;;;;;;;;;;;;18.32;35.33;102078.59;5004496;28;838;-57
2022/03/28 09:57:21;;;;;;;;;;;;;;;17.85;36.57;102076.19;4995415;28;1017;-56
2022/03/28 09:59:46;;;;;;;;;;;;;;;18.07;36.12;102068.88;4996728;28;862;-57
2022/03/28 10:02:16;;;;;;;;;;;;;;;18.10;35.80;102073.91;4996050;28;1084;-57
2022/03/28 10:04:43;;;;;;;;;;;;;;;18.02;36.04;102068.81;4996229;28;1117;-57
2022/03/28 10:07:08;;;;;;;;;;;;;;;18.05;35.84;102073.00;4979217;28;1906;-57
2022/03/28 10:09:33;;;;;;;;;;;;;;;18.03;36.17;102073.22;4985384;28;847;-57
2022/03/28 10:11:59;;;;;;;;;;;;;;;18.02;35.73;102071.56;4979331;28;801;-58
2022/03/28 10:14:24;;;;;;;;;;;;;;;18.03;35.87;102061.38;4979227;28;907;-57
2022/03/28 10:16:50;;;;;;;;;;;;;;;18.24;35.37;102059.75;4996443;28;1139;-57
2022/03/28 10:19:15;;;;;;;;;;;;;;;18.30;35.26;102056.00;4996345;28;1298;-57
2022/03/28 10:21:41;;;;;;;;;;;;;;;18.44;34.91;102051.78;4984641;28;827;-56
2022/03/28 10:24:08;;;;;;;;;;;;;;;18.52;34.58;102050.50;4981531;28;843;-56
2022/03/28 10:26:34;;;;;;;;;;;;;;;18.49;34.66;102042.75;4978936;28;791;-57
2022/03/28 10:29:07;;;;;;;;;;;;;;;18.57;34.76;102039.56;4995622;28;1902;-58
2022/03/28 10:31:34;;;;;;;;;;;;;;;18.63;34.45;102040.44;4995634;28;1197;-56
2022/03/28 10:33:59;;;;;;;;;;;;;;;18.68;34.49;102026.75;4998266;28;789;-58
2022/03/28 10:36:27;;;;;;;;;;;;;;;18.75;34.43;102035.63;5015312;28;878;-57
2022/03/28 10:38:53;;;;;;;;;;;;;;;18.66;34.20;102028.91;5011261;28;1264;-60
2022/03/28 10:41:19;;;;;;;;;;;;;;;18.77;34.12;102019.66;4996288;28;845;-59
2022/03/28 10:43:45;;;;;;;;;;;;;;;18.74;34.19;102017.44;4996498;28;869;-59
2022/03/28 10:46:10;;;;;;;;;;;;;;;18.85;33.88;102020.31;4996298;28;895;-58
2022/03/28 10:48:38;;;;;;;;;;;;;;;18.87;33.73;102007.09;5002296;28;1937;-59
2022/03/28 10:51:04;;;;;;;;;;;;;;;18.81;33.83;102009.78;4996167;28;924;-60
2022/03/28 10:53:37;;;;;;;;;;;;;;;18.87;33.81;102002.44;4996414;28;831;-57
2022/03/28 10:56:22;;;;;;;;;;;;;;;18.91;33.72;101989.00;4997666;28;805;-60
2022/03/28 10:58:52;;;;;;;;;;;;;;;19.05;33.55;101990.22;4999384;28;1556;-59
2022/03/28 11:01:19;;;;;;;;;;;;;;;19.08;33.65;101984.22;4998864;28;1089;-63
2022/03/28 11:03:46;;;;;;;;;;;;;;;19.01;33.64;101983.56;4998920;28;1319;-61
2022/03/28 11:06:12;;;;;;;;;;;;;;;19.01;33.86;101961.50;4981116;28;1355;-60
2022/03/28 11:08:38;;;;;;;;;;;;;;;19.03;33.50;101964.84;4999861;28;1910;-58
2022/03/28 11:11:24;;;;;;;;;;;;;;;19.00;33.76;101967.28;5008917;28;814;-58
2022/03/28 11:14:08;;;;;;;;;;;;;;;19.15;33.41;101970.19;5014280;28;911;-58
2022/03/28 11:16:39;;;;;;;;;;;;;;;19.03;33.69;101961.25;5018114;28;798;-58
2022/03/28 11:19:24;;;;;;;;;;;;;;;18.86;33.98;101945.66;5018110;28;1070;-58
2022/03/28 11:22:10;;;;;;;;;;;;;;;18.71;34.09;101951.00;5017240;28;1227;-58
2022/03/28 11:24:48;;;;;;;;;;;;;;;18.41;34.41;101935.78;5003890;28;1267;-58
2022/03/28 11:27:14;;;;;;;;;;;;;;;18.27;34.83;101940.84;4994898;28;2012;-58
2022/03/28 11:29:40;;;;;;;;;;;;;;;18.06;35.47;101923.25;4999226;28;806;-58
2022/03/28 11:32:09;;;;;;;;;;;;;;;17.94;35.56;101926.13;4998734;28;820;-58
2022/03/28 11:34:35;;;;;;;;;;;;;;;17.69;35.89;101919.16;4992003;28;1323;-58
2022/03/28 11:37:00;;;;;;;;;;;;;;;17.82;36.04;101926.19;4996156;28;1001;-58
2022/03/28 11:39:27;;;;;;;;;;;;;;;17.95;35.56;101922.31;5011922;28;1121;-58
2022/03/28 11:41:56;;;;;;;;;;;;;;;18.14;35.17;101925.56;5017543;28;738;-58
2022/03/28 11:44:22;;;;;;;;;;;;;;;18.53;34.49;101913.63;5012737;28;1050;-58
2022/03/28 11:46:54;;;;;;;;;;;;;;;18.81;34.15;101918.84;4998979;28;795;-58
2022/03/28 11:49:20;;;;;;;;;;;;;;;19.09;33.70;101910.59;4993060;28;855;-58
2022/03/28 11:51:45;;;;;;;;;;;;;;;19.12;33.44;101908.13;4997203;28;1413;-59
2022/03/28 11:54:12;;;;;;;;;;;;;;;19.32;33.38;101890.94;4996302;28;1319;-58
2022/03/28 11:58:14;;;;;;;;;;;;;;;19.03;33.63;101901.44;5017501;28;786;-58
2022/03/28 11:59:23;;;;;;;;;;;;;;;17.74;36.14;101907.38;5017319;28;1567;-58
2022/03/28 12:01:54;;;;;;;;;;;;;;;17.89;35.94;101896.63;5007502;28;1148;-57
2022/03/28 12:04:20;;;;;;;;;;;;;;;17.94;35.55;101899.44;4998541;28;1286;-57
2022/03/28 12:06:46;;;;;;;;;;;;;;;18.01;35.80;101892.94;4998006;28;1070;-57
2022/03/28 12:09:15;;;;;;;;;;;;;;;18.25;35.35;101879.72;4995765;28;1981;-57
2022/03/28 12:11:40;;;;;;;;;;;;;;;18.75;34.43;101883.28;4998683;28;1308;-57
2022/03/28 12:14:06;;;;;;;;;;;;;;;18.98;33.79;101884.88;4982049;28;1464;-55
2022/03/28 12:16:31;;;;;;;;;;;;;;;19.20;33.26;101859.13;4996247;28;1229;-55
2022/03/28 12:18:58;;;;;;;;;;;;;;;19.30;33.44;101857.25;4997729;28;1224;-54
2022/03/28 12:21:25;;;;;;;;;;;;;;;19.28;33.03;101856.69;4998895;28;1192;-54
2022/03/28 12:23:50;;;;;;;;;;;;;;;18.02;35.44;101856.91;4998121;28;1235;-54
2022/03/28 12:26:16;;;;;;;;;;;;;;;17.97;35.73;101853.25;4996200;28;1295;-54
2022/03/28 12:28:45;;;;;;;;;;;;;;;18.09;35.56;101841.00;4992904;28;1989;-54
2022/03/28 12:31:11;;;;;;;;;;;;;;;18.16;35.41;101834.47;4996858;28;1051;-54
2022/03/28 12:33:38;;;;;;;;;;;;;;;18.21;35.19;101832.59;4997311;28;1109;-54
2022/03/28 12:36:05;;;;;;;;;;;;;;;18.17;35.15;101833.38;5004701;28;1161;-56
2022/03/28 12:38:31;;;;;;;;;;;;;;;18.25;34.95;101822.72;4996549;28;1066;-55
2022/03/28 12:40:58;;;;;;;;;;;;;;;18.29;34.95;101823.06;4996648;28;771;-56
2022/03/28 12:43:27;;;;;;;;;;;;;;;18.32;34.84;101817.00;5015538;28;978;-55
2022/03/28 12:45:53;;;;;;;;;;;;;;;18.69;34.26;101813.50;5002402;28;1149;-60
2022/03/28 12:48:19;;;;;;;;;;;;;;;19.04;33.62;101811.31;4997969;28;1997;-61